Time;durP1;ratioP1;P1;durP2;ratioP2;P2;SDS_P1;SDS_P2;PMS_P1;PMS_P2;Temp;Humidity;BMP_temperature;BMP_pressure;BME280_temperature;BME280_humidity;BME280_pressure;Samples;Min_cycle;Max_cycle;Signal;HPM_P1;HPM_P2
2023/02/27 00:00:17;;;;;;;2.75;1.48;;;-0.40;59.80;;;;;;5052922;28;20028;-72
2023/02/27 00:02:45;;;;;;;6.00;1.95;;;-0.40;60.00;;;;;;5052859;28;20127;-73
2023/02/27 00:05:11;;;;;;;3.83;1.83;;;-0.30;59.80;;;;;;5052887;28;20020;-75
2023/02/27 00:07:37;;;;;;;4.22;1.73;;;-0.40;59.90;;;;;;5052626;28;20108;-76
2023/02/27 00:10:03;;;;;;;2.72;1.80;;;-0.40;60.60;;;;;;5052703;28;20524;-75
2023/02/27 00:12:30;;;;;;;3.42;1.95;;;-0.40;59.90;;;;;;5052366;28;20021;-75
2023/02/27 00:14:55;;;;;;;3.70;1.60;;;-0.30;60.10;;;;;;5052713;28;20029;-75
2023/02/27 00:17:24;;;;;;;5.35;2.10;;;-0.40;59.40;;;;;;5052406;28;20035;-74
2023/02/27 00:19:50;;;;;;;3.08;1.70;;;-0.40;59.80;;;;;;5052803;28;20028;-74
2023/02/27 00:22:15;;;;;;;3.13;1.80;;;-0.40;59.70;;;;;;5054760;28;20404;-76
2023/02/27 00:24:41;;;;;;;3.60;1.80;;;-0.40;59.70;;;;;;5056878;28;20036;-74
2023/02/27 00:27:07;;;;;;;4.22;1.70;;;-0.40;59.70;;;;;;5038888;28;20118;-73
2023/02/27 00:29:32;;;;;;;2.75;1.77;;;-0.40;59.80;;;;;;5056641;28;20033;-74
2023/02/27 00:31:59;;;;;;;4.00;1.85;;;-0.40;59.40;;;;;;5056773;28;20025;-74
2023/02/27 00:34:24;;;;;;;4.55;1.80;;;-0.40;59.40;;;;;;5056558;28;20024;-74
2023/02/27 00:36:50;;;;;;;2.55;1.92;;;-0.40;59.70;;;;;;5056704;28;20489;-73
2023/02/27 00:39:15;;;;;;;2.58;1.73;;;-0.40;59.70;;;;;;5056352;28;20029;-74
2023/02/27 00:41:41;;;;;;;4.25;2.25;;;-0.40;59.90;;;;;;5056434;28;20100;-74
2023/02/27 00:44:06;;;;;;;4.75;2.13;;;-0.40;59.90;;;;;;5056599;28;20024;-74
2023/02/27 00:46:32;;;;;;;5.18;1.65;;;-0.40;59.70;;;;;;5056503;28;20025;-73
2023/02/27 00:48:57;;;;;;;2.60;1.75;;;-0.40;59.90;;;;;;5056449;28;20108;-74
2023/02/27 00:51:23;;;;;;;2.97;1.90;;;-0.30;59.70;;;;;;5056342;28;20094;-73
2023/02/27 00:53:49;;;;;;;2.53;1.73;;;-0.40;59.70;;;;;;5056345;28;20079;-74
2023/02/27 00:56:14;;;;;;;3.08;1.85;;;-0.30;59.70;;;;;;5056234;28;20043;-73
2023/02/27 00:58:40;;;;;;;2.63;1.80;;;-0.40;59.50;;;;;;5056224;28;20070;-74
2023/02/27 01:01:05;;;;;;;4.45;2.10;;;-0.50;59.60;;;;;;5056161;28;20067;-74
2023/02/27 01:03:31;;;;;;;5.07;1.90;;;-0.40;59.70;;;;;;5061222;28;20032;-75
2023/02/27 01:05:57;;;;;;;2.92;1.85;;;-0.40;59.70;;;;;;5039747;28;20033;-75
2023/02/27 01:08:23;;;;;;;4.70;2.08;;;-0.40;59.80;;;;;;5055962;28;20013;-75
2023/02/27 01:10:48;;;;;;;2.17;1.60;;;-0.50;59.70;;;;;;5055878;28;20037;-75
2023/02/27 01:13:14;;;;;;;5.22;2.15;;;-0.50;59.90;;;;;;5055662;28;20031;-75
2023/02/27 01:15:39;;;;;;;2.08;1.67;;;-0.50;60.20;;;;;;5055738;28;20033;-74
2023/02/27 01:18:05;;;;;;;2.60;2.15;;;-0.50;60.00;;;;;;5055641;28;20041;-75
2023/02/27 01:20:30;;;;;;;2.92;1.85;;;-0.50;60.10;;;;;;5055663;28;20612;-75
2023/02/27 01:22:56;;;;;;;3.78;1.80;;;-0.60;60.20;;;;;;5055698;28;20056;-75
2023/02/27 01:25:22;;;;;;;4.50;1.90;;;-0.60;60.00;;;;;;5055202;28;20029;-75
2023/02/27 01:27:47;;;;;;;4.70;2.38;;;-0.60;60.90;;;;;;5055317;28;20027;-75
2023/02/27 01:30:15;;;;;;;2.67;1.60;;;-0.60;59.80;;;;;;5055617;28;20094;-75
2023/02/27 01:32:41;;;;;;;3.50;1.45;;;-0.60;60.10;;;;;;5055493;28;20029;-75
2023/02/27 01:35:07;;;;;;;3.90;1.70;;;-0.60;60.10;;;;;;5037622;28;20409;-77
2023/02/27 01:37:32;;;;;;;3.28;1.80;;;-0.60;60.20;;;;;;5055468;28;20028;-74
2023/02/27 01:39:58;;;;;;;4.10;1.90;;;-0.60;60.50;;;;;;5055397;28;20067;-73
2023/02/27 01:42:27;;;;;;;3.00;1.65;;;-0.60;60.50;;;;;;5055457;28;20028;-74
2023/02/27 01:45:10;;;;;;;2.97;1.67;;;-0.60;60.40;;;;;;5055354;28;20021;-73
2023/02/27 01:47:42;;;;;;;4.03;1.85;;;-0.50;60.40;;;;;;5055041;28;20028;-73
2023/02/27 01:50:09;;;;;;;3.72;1.90;;;-0.50;59.90;;;;;;5055142;28;20033;-74
2023/02/27 01:52:37;;;;;;;2.53;1.98;;;-0.50;59.60;;;;;;5055190;28;20013;-77
2023/02/27 01:55:07;;;;;;;5.78;2.70;;;-0.50;59.80;;;;;;5054874;28;20399;-73
2023/02/27 01:57:34;;;;;;;3.90;1.67;;;-0.50;60.00;;;;;;5037131;28;20021;-74
2023/02/27 01:59:59;;;;;;;2.83;1.70;;;-0.50;60.00;;;;;;5055095;28;20020;-73
2023/02/27 02:02:32;;;;;;;3.55;1.90;;;-0.50;59.90;;;;;;5055107;28;20500;-74
2023/02/27 02:04:58;;;;;;;3.40;1.90;;;-0.50;59.70;;;;;;5054907;28;20029;-74
2023/02/27 02:07:24;;;;;;;3.92;2.33;;;-0.50;60.30;;;;;;5054909;28;20056;-74
2023/02/27 02:09:53;;;;;;;2.80;1.88;;;-0.50;60.30;;;;;;5054813;28;20025;-76
2023/02/27 02:12:23;;;;;;;3.22;1.83;;;-0.50;60.20;;;;;;5054865;28;20037;-76
2023/02/27 02:14:50;;;;;;;3.10;1.90;;;-0.50;60.10;;;;;;5054840;28;20029;-74
2023/02/27 02:17:42;;;;;;;2.35;1.88;;;-0.60;60.80;;;;;;5054467;28;20075;-73
2023/02/27 02:20:20;;;;;;;3.08;1.83;;;-0.60;60.40;;;;;;5054724;28;20083;-73
2023/02/27 02:23:07;;;;;;;3.00;2.03;;;-0.50;60.40;;;;;;5054608;28;20025;-73
2023/02/27 02:25:42;;;;;;;3.42;2.22;;;-0.60;60.80;;;;;;5054595;28;20025;-73
2023/02/27 02:28:31;;;;;;;2.90;2.05;;;-0.60;61.10;;;;;;5054619;28;20025;-73
2023/02/27 02:31:15;;;;;;;3.10;2.03;;;-0.60;60.90;;;;;;5054472;28;20059;-76
2023/02/27 02:34:18;;;;;;;2.90;2.10;;;-0.70;60.90;;;;;;5054571;28;20103;-75
2023/02/27 02:36:47;;;;;;;4.13;1.92;;;-0.70;61.10;;;;;;5036692;28;20099;-79
2023/02/27 02:39:29;;;;;;;2.45;1.80;;;-0.70;61.10;;;;;;5054432;28;20025;-77
2023/02/27 02:42:22;;;;;;;3.35;2.30;;;-0.70;61.40;;;;;;5054417;28;20362;-76
2023/02/27 02:45:14;;;;;;;5.63;1.90;;;-0.70;60.80;;;;;;5053642;28;20025;-78
2023/02/27 02:48:00;;;;;;;4.57;2.10;;;-0.70;60.70;;;;;;5054209;28;20049;-74
2023/02/27 02:50:38;;;;;;;4.55;1.85;;;-0.70;60.60;;;;;;5036254;28;20040;-74
2023/02/27 02:53:26;;;;;;;2.33;1.92;;;-0.70;60.70;;;;;;5054102;28;20048;-74
2023/02/27 02:56:03;;;;;;;3.40;1.95;;;-0.70;61.60;;;;;;5036181;28;20119;-76
2023/02/27 02:58:36;;;;;;;4.50;2.05;;;-0.70;61.40;;;;;;5053948;28;20028;-75
2023/02/27 03:01:10;;;;;;;3.85;2.22;;;-0.80;61.40;;;;;;5035889;28;20047;-75
2023/02/27 03:03:45;;;;;;;4.30;2.03;;;-0.70;61.40;;;;;;5053807;28;20492;-75
2023/02/27 03:06:26;;;;;;;4.38;2.20;;;-0.70;61.60;;;;;;5053917;28;20044;-75
2023/02/27 03:08:58;;;;;;;2.95;2.00;;;-0.70;62.90;;;;;;5053852;28;20021;-73
2023/02/27 03:11:28;;;;;;;4.32;2.20;;;-0.70;61.80;;;;;;5053644;28;20531;-73
2023/02/27 03:13:58;;;;;;;4.90;2.53;;;-0.70;61.70;;;;;;5053783;28;20053;-73
2023/02/27 03:16:40;;;;;;;2.90;2.33;;;-0.70;61.80;;;;;;5053821;28;20024;-73
2023/02/27 03:19:27;;;;;;;4.50;2.22;;;-0.70;62.10;;;;;;5053525;28;20494;-73
2023/02/27 03:22:07;;;;;;;4.10;2.10;;;-0.70;62.30;;;;;;5053565;28;20021;-73
2023/02/27 03:24:38;;;;;;;2.90;2.15;;;-0.70;62.30;;;;;;5053504;28;20033;-76
2023/02/27 03:27:05;;;;;;;4.00;2.50;;;-0.70;61.90;;;;;;5053632;28;20028;-73
2023/02/27 03:30:00;;;;;;;4.88;2.45;;;-0.70;61.80;;;;;;5053378;28;20040;-75
2023/02/27 03:33:01;;;;;;;4.43;1.92;;;-0.70;61.80;;;;;;5053164;28;20033;-73
2023/02/27 03:35:55;;;;;;;4.65;2.42;;;-0.70;61.90;;;;;;5053476;28;20094;-74
2023/02/27 03:38:31;;;;;;;5.00;2.30;;;-0.70;62.00;;;;;;5035346;28;20456;-74
2023/02/27 03:41:06;;;;;;;3.25;2.35;;;-0.70;61.70;;;;;;5053290;28;20120;-74
2023/02/27 03:43:43;;;;;;;2.67;2.30;;;-0.70;61.70;;;;;;5035175;28;20425;-74
2023/02/27 03:46:14;;;;;;;4.85;2.22;;;-0.70;61.80;;;;;;5053071;28;20021;-75
2023/02/27 03:48:43;;;;;;;3.53;2.50;;;-0.70;61.70;;;;;;5053015;28;20500;-75
2023/02/27 03:51:30;;;;;;;2.92;2.22;;;-0.80;61.70;;;;;;5053031;28;20032;-75
2023/02/27 03:54:14;;;;;;;3.28;2.28;;;-0.80;62.20;;;;;;5053259;28;20017;-75
2023/02/27 03:56:42;;;;;;;3.27;2.00;;;-0.80;62.20;;;;;;5052242;28;20043;-74
2023/02/27 03:59:08;;;;;;;4.18;2.33;;;-0.80;62.00;;;;;;5052970;28;20025;-75
2023/02/27 04:01:34;;;;;;;5.10;2.47;;;-0.80;62.10;;;;;;5053019;28;20025;-74
2023/02/27 04:04:13;;;;;;;4.07;2.25;;;-0.80;62.10;;;;;;5034984;28;20028;-74
2023/02/27 04:09:40;;;;;;;4.70;2.22;;;-0.80;62.30;;;;;;5052977;28;20043;-74
2023/02/27 04:12:21;;;;;;;6.47;2.78;;;-0.80;62.30;;;;;;5052760;28;20021;-74
2023/02/27 04:15:01;;;;;;;6.57;2.40;;;-0.80;62.40;;;;;;5052999;28;20497;-74
2023/02/27 04:17:29;;;;;;;4.35;2.35;;;-0.90;62.90;;;;;;5052551;28;20052;-74
2023/02/27 04:20:07;;;;;;;3.33;2.58;;;-0.90;62.40;;;;;;5052701;28;20033;-74
2023/02/27 04:23:08;;;;;;;3.53;2.50;;;-0.80;62.30;;;;;;5052680;28;20025;-74
2023/02/27 04:26:13;;;;;;;4.82;2.53;;;-0.80;62.20;;;;;;5038640;28;20029;-76
2023/02/27 04:28:53;;;;;;;4.70;2.58;;;-0.90;62.10;;;;;;5034504;28;20380;-75
2023/02/27 04:31:36;;;;;;;3.45;2.40;;;-0.90;62.10;;;;;;5052443;28;20056;-76
2023/02/27 04:34:12;;;;;;;3.05;2.33;;;-0.90;62.20;;;;;;5052565;28;20497;-75
2023/02/27 04:36:41;;;;;;;3.13;2.08;;;-0.90;63.10;;;;;;5052664;28;20436;-75
2023/02/27 04:39:23;;;;;;;4.15;2.50;;;-0.90;62.30;;;;;;5052241;28;20109;-75
2023/02/27 04:41:57;;;;;;;5.00;2.60;;;-0.90;62.40;;;;;;5052477;28;20079;-74
2023/02/27 04:44:25;;;;;;;6.55;2.50;;;-0.90;62.20;;;;;;5052508;28;20025;-74
2023/02/27 04:46:54;;;;;;;3.05;2.45;;;-0.90;62.30;;;;;;5052435;28;20513;-74
2023/02/27 04:49:37;;;;;;;2.70;2.42;;;-0.90;62.60;;;;;;5052283;28;20047;-75
2023/02/27 04:52:17;;;;;;;4.68;2.90;;;-0.80;62.30;;;;;;5052361;28;20028;-74
2023/02/27 04:54:49;;;;;;;4.25;3.03;;;-0.80;62.00;;;;;;5034451;28;20420;-74
2023/02/27 04:57:23;;;;;;;4.82;3.13;;;-0.80;62.10;;;;;;5052402;28;20477;-74
2023/02/27 04:59:54;;;;;;;5.50;3.05;;;-0.80;61.90;;;;;;5052436;28;20025;-76
2023/02/27 05:02:24;;;;;;;4.40;2.58;;;-0.80;62.20;;;;;;5052248;28;20021;-75
2023/02/27 05:04:55;;;;;;;4.25;2.60;;;-0.80;62.10;;;;;;5034366;28;20024;-77
2023/02/27 05:07:25;;;;;;;3.88;2.80;;;-0.80;62.20;;;;;;5034876;28;20362;-75
2023/02/27 05:10:01;;;;;;;4.22;2.90;;;-0.80;62.10;;;;;;5055748;28;20032;-76
2023/02/27 05:12:41;;;;;;;6.07;2.75;;;-0.80;62.30;;;;;;5056050;28;20158;-74
2023/02/27 05:15:27;;;;;;;5.78;2.70;;;-0.80;62.40;;;;;;5057677;28;20487;-75
2023/02/27 05:18:00;;;;;;;6.68;3.13;;;-0.80;62.90;;;;;;5057117;28;20465;-75
2023/02/27 05:20:42;;;;;;;6.20;3.22;;;-0.80;62.50;;;;;;5055735;28;20029;-75
2023/02/27 05:23:36;;;;;;;3.72;2.67;;;-0.80;62.50;;;;;;5055856;28;20031;-74
2023/02/27 05:26:21;;;;;;;4.57;2.95;;;-0.80;62.20;;;;;;5054983;28;20402;-73
2023/02/27 05:29:02;;;;;;;3.58;2.90;;;-0.80;62.10;;;;;;5055748;28;20021;-75
2023/02/27 05:31:53;;;;;;;5.03;2.95;;;-0.70;62.10;;;;;;5037581;28;20037;-74
2023/02/27 05:34:28;;;;;;;4.50;2.83;;;-0.80;61.90;;;;;;5044510;28;20030;-74
2023/02/27 05:37:04;;;;;;;3.70;3.20;;;-0.80;62.00;;;;;;5055484;28;20033;-74
2023/02/27 05:39:35;;;;;;;5.07;2.70;;;-0.80;62.00;;;;;;5055234;28;20029;-75
2023/02/27 05:42:06;;;;;;;6.35;3.20;;;-0.90;61.90;;;;;;5055505;28;20025;-73
2023/02/27 05:44:34;;;;;;;3.22;2.40;;;-0.90;62.00;;;;;;5037500;28;20057;-73
2023/02/27 05:47:04;;;;;;;4.97;3.10;;;-0.90;62.00;;;;;;5055363;28;20377;-73
2023/02/27 05:49:39;;;;;;;4.90;2.85;;;-0.90;62.70;;;;;;5043102;28;20086;-73
2023/02/27 05:52:09;;;;;;;6.50;3.10;;;-0.90;62.60;;;;;;5055428;28;20028;-73
2023/02/27 05:54:43;;;;;;;6.25;3.03;;;-0.90;62.30;;;;;;5055492;28;20024;-74
2023/02/27 05:57:13;;;;;;;5.68;3.25;;;-0.90;62.40;;;;;;5037182;28;20036;-74
2023/02/27 05:59:52;;;;;;;5.57;2.90;;;-0.90;61.90;;;;;;5054967;28;20478;-75
2023/02/27 06:02:17;;;;;;;6.18;3.08;;;-0.90;61.90;;;;;;5037142;28;20391;-74
2023/02/27 06:04:43;;;;;;;4.60;3.00;;;-0.90;61.80;;;;;;5054871;28;20032;-74
2023/02/27 06:07:08;;;;;;;4.22;2.70;;;-0.90;61.90;;;;;;5054683;28;20036;-75
2023/02/27 06:09:34;;;;;;;5.22;3.83;;;-0.90;62.20;;;;;;5054740;28;20147;-74
2023/02/27 06:12:01;;;;;;;5.28;3.45;;;-1.00;62.30;;;;;;5054141;28;20029;-75
2023/02/27 06:14:27;;;;;;;23.08;13.43;;;-0.90;62.10;;;;;;5054474;28;20405;-74
2023/02/27 06:16:53;;;;;;;8.40;3.33;;;-1.00;62.70;;;;;;5054394;28;20098;-75
2023/02/27 06:19:18;;;;;;;4.90;3.00;;;-0.90;62.00;;;;;;5053089;28;20085;-74
2023/02/27 06:21:44;;;;;;;4.40;3.10;;;-1.00;61.70;;;;;;5054524;28;20052;-77
2023/02/27 06:24:09;;;;;;;5.28;3.25;;;-0.90;62.10;;;;;;5054608;28;20021;-74
2023/02/27 06:26:35;;;;;;;5.95;3.30;;;-1.00;62.20;;;;;;5036612;28;20456;-75
2023/02/27 06:29:01;;;;;;;9.30;5.30;;;-1.00;62.20;;;;;;5035984;28;20025;-74
2023/02/27 06:31:26;;;;;;;8.48;3.72;;;-0.90;62.00;;;;;;5053866;28;20118;-73
2023/02/27 06:33:54;;;;;;;5.47;3.53;;;-0.90;61.70;;;;;;5053910;28;20104;-73
2023/02/27 06:36:21;;;;;;;4.30;2.92;;;-1.00;62.10;;;;;;5054107;28;20033;-75
2023/02/27 06:38:47;;;;;;;5.22;3.30;;;-1.00;62.20;;;;;;5053991;28;20067;-74
2023/02/27 06:41:13;;;;;;;5.85;3.33;;;-1.00;62.30;;;;;;5054001;28;20124;-74
2023/02/27 06:43:38;;;;;;;4.47;2.88;;;-1.00;62.50;;;;;;5036012;28;20437;-74
2023/02/27 06:46:04;;;;;;;5.22;3.35;;;-1.00;62.80;;;;;;5053877;28;20025;-74
2023/02/27 06:48:30;;;;;;;11.13;4.75;;;-0.90;62.40;;;;;;5053936;28;20389;-74
2023/02/27 06:50:56;;;;;;;7.15;3.47;;;-0.90;62.90;;;;;;5053834;28;20068;-75
2023/02/27 06:53:22;;;;;;;5.07;3.10;;;-0.90;62.30;;;;;;5053865;28;20021;-74
2023/02/27 06:55:48;;;;;;;4.82;3.60;;;-0.90;62.20;;;;;;5053917;28;20112;-73
2023/02/27 06:58:15;;;;;;;8.43;5.35;;;-0.90;62.60;;;;;;5053750;28;20166;-74
2023/02/27 07:00:40;;;;;;;9.27;4.63;;;-0.80;62.60;;;;;;5035769;28;20409;-74
2023/02/27 07:03:06;;;;;;;6.47;3.33;;;-0.80;62.60;;;;;;5053630;28;20021;-73
2023/02/27 07:05:32;;;;;;;5.63;3.45;;;-0.80;62.70;;;;;;5053504;28;20041;-73
2023/02/27 07:07:57;;;;;;;8.73;4.22;;;-0.80;62.20;;;;;;5053387;28;20478;-74
2023/02/27 07:10:23;;;;;;;5.25;3.95;;;-0.80;63.70;;;;;;5053456;28;20366;-73
2023/02/27 07:12:49;;;;;;;7.05;3.97;;;-0.90;63.30;;;;;;5035397;28;20017;-75
2023/02/27 07:15:15;;;;;;;7.63;4.57;;;-0.90;63.60;;;;;;5053246;28;20032;-73
2023/02/27 07:17:40;;;;;;;10.27;5.53;;;-0.90;64.10;;;;;;5053202;28;20370;-74
2023/02/27 07:20:09;;;;;;;5.60;4.00;;;-0.90;63.80;;;;;;5053302;28;20033;-73
2023/02/27 07:22:35;;;;;;;5.20;3.58;;;-0.90;63.50;;;;;;5053125;28;20028;-73
2023/02/27 07:25:01;;;;;;;7.78;4.18;;;-0.90;63.00;;;;;;5053145;28;20020;-74
2023/02/27 07:27:26;;;;;;;6.93;4.35;;;-0.90;63.20;;;;;;5035159;28;20474;-74
2023/02/27 07:29:52;;;;;;;6.57;4.50;;;-1.00;63.70;;;;;;5053093;28;20029;-74
2023/02/27 07:32:18;;;;;;;8.85;4.93;;;-1.00;64.00;;;;;;5053028;28;20039;-74
2023/02/27 07:34:44;;;;;;;9.07;4.57;;;-1.00;64.70;;;;;;5053012;28;20380;-74
2023/02/27 07:37:09;;;;;;;9.10;5.15;;;-1.00;65.10;;;;;;5053058;28;20036;-74
2023/02/27 07:39:35;;;;;;;9.20;5.20;;;-1.10;65.20;;;;;;5053068;28;20021;-74
2023/02/27 07:42:01;;;;;;;9.00;5.40;;;-1.10;65.20;;;;;;5035065;28;20115;-74
2023/02/27 07:44:26;;;;;;;6.00;4.60;;;-1.10;65.50;;;;;;5034997;28;20025;-75
2023/02/27 07:46:52;;;;;;;8.90;4.55;;;-1.20;65.60;;;;;;5053027;28;20082;-74
2023/02/27 07:49:17;;;;;;;7.93;4.57;;;-1.20;65.90;;;;;;5052728;28;20477;-75
2023/02/27 07:51:43;;;;;;;9.32;5.07;;;-1.20;66.20;;;;;;5052745;28;20501;-74
2023/02/27 07:54:08;;;;;;;10.48;5.63;;;-1.10;66.20;;;;;;5052810;28;20489;-74
2023/02/27 07:56:34;;;;;;;10.45;5.75;;;-1.00;65.90;;;;;;5052778;28;20109;-74
2023/02/27 07:59:00;;;;;;;13.00;6.68;;;-0.90;65.60;;;;;;5034549;28;20027;-74
2023/02/27 08:01:25;;;;;;;7.60;4.30;;;-0.70;65.30;;;;;;5052459;28;20075;-74
2023/02/27 08:03:51;;;;;;;7.55;4.38;;;-0.60;64.60;;;;;;5052557;28;20025;-74
2023/02/27 08:06:16;;;;;;;8.05;4.88;;;-0.50;63.50;;;;;;5052192;28;20025;-74
2023/02/27 08:08:42;;;;;;;9.65;5.50;;;-0.40;62.80;;;;;;5052476;28;20025;-74
2023/02/27 08:11:08;;;;;;;5.65;3.83;;;-0.30;62.70;;;;;;5052018;28;20123;-76
2023/02/27 08:13:34;;;;;;;12.75;5.72;;;-0.10;61.70;;;;;;5052465;28;20056;-75
2023/02/27 08:15:59;;;;;;;15.93;4.53;;;0.40;73.00;;;;;;5034160;28;20116;-75
2023/02/27 08:18:27;;;;;;;5.47;3.35;;;1.20;79.10;;;;;;5052117;28;20053;-75
2023/02/27 08:20:56;;;;;;;5.45;2.40;;;2.20;65.10;;;;;;5052308;28;20036;-74
2023/02/27 08:23:21;;;;;;;3.90;2.60;;;3.10;57.20;;;;;;5052568;28;20025;-74
2023/02/27 08:25:47;;;;;;;5.50;2.25;;;3.90;51.20;;;;;;5052478;28;20033;-74
2023/02/27 08:28:13;;;;;;;4.05;2.22;;;4.60;47.50;;;;;;5052161;28;20025;-76
2023/02/27 08:30:39;;;;;;;5.07;2.53;;;4.90;45.60;;;;;;5052316;28;20120;-76
2023/02/27 08:33:04;;;;;;;4.07;2.05;;;4.90;42.60;;;;;;5052447;28;20382;-74
2023/02/27 08:35:30;;;;;;;2.45;1.50;;;4.40;41.00;;;;;;5052430;28;20024;-74
2023/02/27 08:37:57;;;;;;;2.67;2.00;;;3.80;42.00;;;;;;5052334;28;20025;-74
2023/02/27 08:40:22;;;;;;;14.57;5.95;;;3.40;44.10;;;;;;5052150;28;20017;-74
2023/02/27 08:42:50;;;;;;;6.88;2.25;;;3.20;45.00;;;;;;5053167;28;20032;-75
2023/02/27 08:45:16;;;;;;;4.55;2.05;;;3.00;45.10;;;;;;5055923;28;20021;-75
2023/02/27 08:47:44;;;;;;;2.95;1.92;;;2.80;45.70;;;;;;5056308;28;20439;-75
2023/02/27 08:50:11;;;;;;;4.85;2.60;;;2.50;46.30;;;;;;5056096;28;20481;-75
2023/02/27 08:52:37;;;;;;;3.80;2.10;;;2.40;46.70;;;;;;5056129;28;20017;-74
2023/02/27 08:55:03;;;;;;;5.40;2.70;;;2.20;47.20;;;;;;5055971;28;20032;-76
2023/02/27 08:57:28;;;;;;;6.43;3.67;;;2.10;48.10;;;;;;5055796;28;20079;-75
2023/02/27 08:59:54;;;;;;;4.43;2.70;;;2.00;48.60;;;;;;5038049;28;20029;-75
2023/02/27 09:02:22;;;;;;;3.97;2.20;;;2.00;48.60;;;;;;5037868;28;20021;-75
2023/02/27 09:04:48;;;;;;;4.45;2.30;;;2.10;48.80;;;;;;5055716;28;20346;-75
2023/02/27 09:07:13;;;;;;;3.70;2.42;;;2.10;48.50;;;;;;5055664;28;20027;-75
2023/02/27 09:09:39;;;;;;;7.20;2.40;;;2.30;48.50;;;;;;5055513;28;20029;-75
2023/02/27 09:12:05;;;;;;;3.95;1.98;;;2.50;48.00;;;;;;5055602;28;20025;-74
2023/02/27 09:14:30;;;;;;;5.10;2.67;;;2.40;47.40;;;;;;5055468;28;20036;-74
2023/02/27 09:16:57;;;;;;;5.95;3.92;;;2.50;47.10;;;;;;5037489;28;20035;-74
2023/02/27 09:19:22;;;;;;;4.18;2.72;;;2.40;47.00;;;;;;5055246;28;20099;-74
2023/02/27 09:21:48;;;;;;;3.83;2.35;;;2.60;47.10;;;;;;5055534;28;20030;-75
2023/02/27 09:24:14;;;;;;;4.55;2.38;;;2.70;47.30;;;;;;5055437;28;20059;-74
2023/02/27 09:26:39;;;;;;;3.92;2.22;;;2.80;46.20;;;;;;5055539;28;20393;-74
2023/02/27 09:29:05;;;;;;;3.03;2.17;;;2.70;45.90;;;;;;5055628;28;20020;-75
2023/02/27 09:31:30;;;;;;;4.03;2.17;;;2.70;46.50;;;;;;5055420;28;20043;-75
2023/02/27 09:33:56;;;;;;;4.00;2.17;;;2.70;45.70;;;;;;5055447;28;20021;-74
2023/02/27 09:36:23;;;;;;;7.43;2.33;;;2.80;44.90;;;;;;5055405;28;20025;-74
2023/02/27 09:38:48;;;;;;;4.30;2.25;;;2.60;45.00;;;;;;5037387;28;20021;-74
2023/02/27 09:41:37;;;;;;;5.65;2.50;;;2.60;45.50;;;;;;5055325;28;20385;-74
2023/02/27 09:44:04;;;;;;;4.47;2.13;;;2.60;44.60;;;;;;5054982;28;20025;-74
2023/02/27 09:46:30;;;;;;;3.95;2.03;;;2.50;44.50;;;;;;5052357;28;20028;-74
2023/02/27 09:49:00;;;;;;;4.13;2.25;;;2.60;44.70;;;;;;5052934;28;20021;-74
2023/02/27 09:51:27;;;;;;;3.60;2.05;;;2.50;44.40;;;;;;5032370;28;20433;-74
2023/02/27 09:53:58;;;;;;;5.95;2.50;;;2.60;44.60;;;;;;5051676;28;20020;-76
2023/02/27 09:57:02;;;;;;;6.60;2.45;;;2.60;44.10;;;;;;5053099;28;20071;-75
2023/02/27 09:59:42;;;;;;;9.55;3.80;;;2.80;43.40;;;;;;4990675;28;20045;-75
2023/02/27 10:02:32;;;;;;;3.97;2.25;;;2.90;43.00;;;;;;5046800;28;20509;-75
2023/02/27 10:05:14;;;;;;;5.68;2.60;;;2.90;43.20;;;;;;5051857;28;20033;-76
2023/02/27 10:07:51;;;;;;;3.05;2.35;;;3.00;43.00;;;;;;5052281;28;20056;-76
2023/02/27 10:10:33;;;;;;;4.95;2.40;;;3.10;42.40;;;;;;5051736;28;20044;-76
2023/02/27 10:13:28;;;;;;;4.43;2.28;;;2.90;42.30;;;;;;5051729;28;20021;-73
2023/02/27 10:15:54;;;;;;;7.03;3.70;;;2.90;42.30;;;;;;5051095;28;20545;-72
2023/02/27 10:18:33;;;;;;;4.55;2.22;;;2.90;42.70;;;;;;5052658;28;20171;-73
2023/02/27 10:21:09;;;;;;;4.40;1.98;;;2.80;42.00;;;;;;5051683;28;20104;-73
2023/02/27 10:23:42;;;;;;;;;;;2.80;42.20;;;;;;5051710;28;20021;-74
2023/02/27 10:26:21;;;;;;;5.00;2.25;;;2.70;42.20;;;;;;5032233;28;19916;-73
2023/02/27 10:28:46;;;;;;;3.80;2.40;;;2.60;42.00;;;;;;5050215;28;20017;-74
2023/02/27 10:31:22;;;;;;;3.10;2.42;;;2.50;42.40;;;;;;5052048;28;20044;-73
2023/02/27 10:33:49;;;;;;;4.03;2.35;;;2.40;42.90;;;;;;5050121;28;20096;-73
2023/02/27 10:36:17;;;;;;;3.72;1.90;;;2.60;43.10;;;;;;5052809;28;20036;-74
2023/02/27 10:38:58;;;;;;;4.60;2.28;;;2.70;43.00;;;;;;5052716;28;20097;-74
2023/02/27 10:41:25;;;;;;;6.32;2.83;;;2.80;42.40;;;;;;5052124;28;20025;-74
2023/02/27 10:43:56;;;;;;;3.38;2.45;;;2.70;42.90;;;;;;5052307;28;20008;-74
2023/02/27 10:46:26;;;;;;;4.10;2.30;;;2.60;42.60;;;;;;5052176;28;20020;-75
2023/02/27 10:48:53;;;;;;;5.43;2.25;;;2.40;42.80;;;;;;5052724;28;20429;-74
2023/02/27 10:51:28;;;;;;;3.95;2.22;;;2.70;42.80;;;;;;5051356;28;20025;-74
2023/02/27 10:54:22;;;;;;;5.38;2.30;;;2.80;42.80;;;;;;5032837;28;20064;-74
2023/02/27 10:56:51;;;;;;;3.90;2.35;;;3.30;42.00;;;;;;5049437;28;20020;-74
2023/02/27 10:59:21;;;;;;;4.53;2.38;;;3.50;40.90;;;;;;5051984;28;20469;-73
2023/02/27 11:01:57;;;;;;;7.93;3.55;;;3.50;40.90;;;;;;5049392;28;20024;-74
2023/02/27 11:04:36;;;;;;;3.97;2.30;;;3.50;40.40;;;;;;5033630;28;20112;-73
2023/02/27 11:07:11;;;;;;;5.07;2.50;;;3.30;41.10;;;;;;5051274;28;20108;-74
2023/02/27 11:09:37;;;;;;;4.30;2.55;;;3.30;41.30;;;;;;5051675;28;20342;-75
2023/02/27 11:12:47;;;;;;;4.13;2.50;;;3.10;41.40;;;;;;5051447;28;20023;-73
2023/02/27 11:15:15;;;;;;;3.40;2.42;;;2.90;42.40;;;;;;5038322;28;20024;-74
2023/02/27 11:17:42;;;;;;;4.25;2.47;;;2.80;42.80;;;;;;5051542;28;20045;-76
2023/02/27 11:20:28;;;;;;;3.88;2.30;;;2.80;43.40;;;;;;5049207;28;20107;-76
2023/02/27 11:23:13;;;;;;;5.20;2.55;;;2.70;43.30;;;;;;5039055;28;20170;-74
2023/02/27 11:25:38;;;;;;;3.17;2.35;;;2.70;43.40;;;;;;5050515;28;20021;-74
2023/02/27 11:28:27;;;;;;;4.63;2.55;;;2.50;43.80;;;;;;5051332;28;20032;-75
2023/02/27 11:31:20;;;;;;;5.45;2.38;;;2.40;43.70;;;;;;5049886;28;20508;-74
2023/02/27 11:33:57;;;;;;;5.82;2.55;;;2.30;43.90;;;;;;5051740;28;20029;-74
2023/02/27 11:36:45;;;;;;;4.63;2.92;;;2.30;43.90;;;;;;5051390;28;20108;-74
2023/02/27 11:39:29;;;;;;;4.60;2.55;;;2.40;43.80;;;;;;5031632;28;20021;-74
2023/02/27 11:42:04;;;;;;;4.15;2.60;;;2.30;44.20;;;;;;5050093;28;20021;-75
2023/02/27 11:44:30;;;;;;;8.05;2.40;;;2.30;44.80;;;;;;5049009;28;20025;-74
2023/02/27 11:47:14;;;;;;;3.22;2.30;;;2.30;44.90;;;;;;5051388;28;20075;-74
2023/02/27 11:50:04;;;;;;;4.97;2.22;;;2.30;44.50;;;;;;5050120;28;20436;-74
2023/02/27 11:52:51;;;;;;;4.18;2.53;;;2.20;44.50;;;;;;5048588;28;20486;-75
2023/02/27 11:55:21;;;;;;;5.18;2.80;;;2.20;44.70;;;;;;5032098;28;20032;-74
2023/02/27 11:57:53;;;;;;;4.05;2.67;;;2.20;44.70;;;;;;5048217;28;20027;-73
2023/02/27 12:00:25;;;;;;;5.28;2.33;;;2.20;44.90;;;;;;5051395;28;20017;-74
2023/02/27 12:03:19;;;;;;;4.97;2.88;;;2.10;45.10;;;;;;5034765;28;20025;-74
2023/02/27 12:05:52;;;;;;;4.53;2.60;;;2.20;45.20;;;;;;5052194;28;20533;-75
2023/02/27 12:08:41;;;;;;;4.03;2.47;;;2.20;45.20;;;;;;5034596;28;20040;-75
2023/02/27 12:11:32;;;;;;;3.50;2.25;;;2.20;45.80;;;;;;5052077;28;20129;-76
2023/02/27 12:14:25;;;;;;;5.30;2.97;;;2.20;45.20;;;;;;5052335;28;20021;-76
2023/02/27 12:17:17;;;;;;;4.40;2.30;;;2.20;45.70;;;;;;5052033;28;20036;-75
2023/02/27 12:20:08;;;;;;;5.13;2.83;;;2.10;45.00;;;;;;5052795;28;20037;-75
2023/02/27 12:22:37;;;;;;;5.38;2.60;;;2.10;44.70;;;;;;5044148;28;20025;-74
2023/02/27 12:25:23;;;;;;;4.15;2.33;;;2.10;44.90;;;;;;5051457;28;20494;-74
2023/02/27 12:28:30;;;;;;;5.40;2.63;;;2.20;45.50;;;;;;5052480;28;20032;-73
2023/02/27 12:31:32;;;;;;;4.18;2.65;;;2.10;45.20;;;;;;5052001;28;20040;-73
2023/02/27 12:34:28;;;;;;;4.82;2.95;;;2.10;44.40;;;;;;4998123;28;20034;-73
2023/02/27 12:36:59;;;;;;;5.28;3.00;;;2.10;44.40;;;;;;5052550;28;20021;-74
2023/02/27 12:39:27;;;;;;;4.00;2.70;;;2.10;44.60;;;;;;5052294;28;20383;-74
2023/02/27 12:42:37;;;;;;;4.30;2.53;;;2.00;45.00;;;;;;5051457;28;20029;-74
2023/02/27 12:45:20;;;;;;;4.78;2.70;;;2.00;45.10;;;;;;4990411;28;20058;-74
2023/02/27 12:48:30;;;;;;;4.65;2.88;;;2.00;45.70;;;;;;5046033;28;20187;-74
2023/02/27 12:51:24;;;;;;;5.50;3.13;;;1.90;45.80;;;;;;5052077;28;20029;-74
2023/02/27 12:54:19;;;;;;;6.80;2.50;;;1.90;46.30;;;;;;5052040;28;20090;-73
2023/02/27 12:56:51;;;;;;;7.20;3.17;;;1.80;46.70;;;;;;5051573;28;20017;-74
2023/02/27 12:59:23;;;;;;;5.68;2.95;;;1.80;46.50;;;;;;5052114;28;20490;-74
2023/02/27 13:02:15;;;;;;;6.10;3.00;;;1.80;46.60;;;;;;5053146;28;20101;-73
2023/02/27 13:04:44;;;;;;;4.70;3.10;;;1.90;46.60;;;;;;5056117;28;20114;-73
2023/02/27 13:07:20;;;;;;;5.85;2.90;;;2.00;47.20;;;;;;5056260;28;20037;-75
2023/02/27 13:10:02;;;;;;;6.85;3.03;;;1.90;46.00;;;;;;5054664;28;20029;-74
2023/02/27 13:12:39;;;;;;;5.18;3.03;;;1.90;45.80;;;;;;5055570;28;20032;-74
2023/02/27 13:15:15;;;;;;;5.75;2.90;;;1.90;45.70;;;;;;5034311;28;20025;-73
2023/02/27 13:17:50;;;;;;;5.82;3.00;;;1.90;45.60;;;;;;5051845;28;20049;-75
2023/02/27 13:20:43;;;;;;;4.85;2.75;;;2.00;45.90;;;;;;5052130;28;20021;-74
2023/02/27 13:23:30;;;;;;;5.40;2.78;;;1.90;45.50;;;;;;5052140;28;20036;-74